createdAt,value
2022-10-17T00:20:13.523Z,9.69
2022-10-17T00:22:43.609Z,9.68
2022-10-17T00:25:13.553Z,9.68
2022-10-17T00:27:43.996Z,9.67
2022-10-17T00:30:17.205Z,9.63
2022-10-17T00:32:46.538Z,9.60
2022-10-17T00:35:17.593Z,9.59
2022-10-17T00:37:48.607Z,9.54
2022-10-17T00:40:18.397Z,9.53
2022-10-17T00:42:51.229Z,9.53
2022-10-17T00:45:27.244Z,9.50
2022-10-17T00:48:02.360Z,9.48
2022-10-17T00:50:34.594Z,9.45
2022-10-17T00:53:07.549Z,9.43
2022-10-17T00:55:43.876Z,9.41
2022-10-17T00:58:13.611Z,9.40
2022-10-17T01:00:45.662Z,9.41
2022-10-17T01:03:15.265Z,9.44
2022-10-17T01:05:46.362Z,9.46
2022-10-17T01:08:16.004Z,9.50
2022-10-17T01:10:59.794Z,9.55
2022-10-17T01:13:40.049Z,9.58
2022-10-17T01:16:17.522Z,9.60
2022-10-17T01:19:03.034Z,9.61
2022-10-17T01:21:46.816Z,9.58
2022-10-17T01:24:53.328Z,9.53
2022-10-17T01:28:02.357Z,9.51
2022-10-17T01:31:04.426Z,9.46
2022-10-17T01:33:48.120Z,9.44
2022-10-17T01:36:36.968Z,9.39
2022-10-17T01:39:18.469Z,9.37
2022-10-17T01:41:54.428Z,9.35
2022-10-17T01:44:33.429Z,9.36
2022-10-17T01:47:10.094Z,9.36
2022-10-17T01:49:42.865Z,9.37
2022-10-17T01:52:18.251Z,9.40
2022-10-17T01:54:52.522Z,9.43
2022-10-17T01:57:31.022Z,9.41
2022-10-17T02:00:01.788Z,9.36
2022-10-17T02:02:34.002Z,9.31
2022-10-17T02:05:06.866Z,9.25
2022-10-17T02:07:36.276Z,9.16
2022-10-17T02:10:11.590Z,9.10
2022-10-17T02:12:55.653Z,9.03
2022-10-17T02:16:03.884Z,8.98
2022-10-17T02:19:25.064Z,8.95
2022-10-17T02:22:11.950Z,8.90
2022-10-17T02:24:53.941Z,8.86
2022-10-17T02:27:41.297Z,8.82
2022-10-17T02:30:17.976Z,8.78
2022-10-17T02:32:58.034Z,8.75
2022-10-17T02:35:35.452Z,8.72
2022-10-17T02:38:07.919Z,8.67
2022-10-17T02:40:40.597Z,8.60
2022-10-17T02:43:10.291Z,8.57
2022-10-17T02:45:41.582Z,8.53
2022-10-17T02:48:17.714Z,8.51
2022-10-17T02:51:00.023Z,8.47
2022-10-17T02:53:39.247Z,8.43
2022-10-17T02:56:19.455Z,8.40
2022-10-17T02:58:55.230Z,8.42
2022-10-17T03:01:25.435Z,8.41
2022-10-17T03:04:08.515Z,8.40
2022-10-17T03:06:39.440Z,8.37
2022-10-17T03:09:09.862Z,8.33
2022-10-17T03:11:39.144Z,8.33
2022-10-17T03:14:10.221Z,8.32
2022-10-17T03:16:39.464Z,8.31
2022-10-17T03:19:08.814Z,8.28
2022-10-17T03:21:40.013Z,8.25
2022-10-17T03:24:10.162Z,8.24
2022-10-17T03:26:39.742Z,8.23
2022-10-17T03:29:10.435Z,8.24
2022-10-17T03:31:41.466Z,8.29
2022-10-17T03:34:12.195Z,8.36
2022-10-17T03:36:42.976Z,8.38
2022-10-17T03:39:12.589Z,8.39
2022-10-17T03:41:42.057Z,8.37
2022-10-17T03:44:11.914Z,8.31
2022-10-17T03:46:41.426Z,8.28
2022-10-17T03:49:11.241Z,8.23
2022-10-17T03:51:43.707Z,8.15
2022-10-17T03:54:16.554Z,8.12
2022-10-17T03:56:46.610Z,8.07
2022-10-17T03:59:19.965Z,8.03
2022-10-17T04:01:58.556Z,8.01
2022-10-17T04:04:28.238Z,7.98
2022-10-17T04:06:59.037Z,7.92
2022-10-17T04:09:28.548Z,7.89
2022-10-17T04:12:06.540Z,7.84
2022-10-17T04:14:38.729Z,7.82
2022-10-17T04:17:08.141Z,7.80
2022-10-17T04:19:38.428Z,7.81
2022-10-17T04:22:09.493Z,7.85
2022-10-17T04:24:41.532Z,7.90
2022-10-17T04:27:13.026Z,7.93
2022-10-17T04:29:46.035Z,7.93
2022-10-17T04:32:19.796Z,7.95
2022-10-17T04:34:58.097Z,8.00
2022-10-17T04:37:31.217Z,8.04
2022-10-17T04:40:02.383Z,8.09
2022-10-17T04:42:34.730Z,8.14
2022-10-17T04:45:04.790Z,8.29
2022-10-17T04:47:34.473Z,8.43
2022-10-17T04:50:05.105Z,8.44
2022-10-17T04:52:38.095Z,8.53
2022-10-17T04:55:09.221Z,8.53
2022-10-17T04:57:38.813Z,8.49
2022-10-17T05:00:16.670Z,8.46
2022-10-17T05:02:58.646Z,8.45
2022-10-17T05:05:29.566Z,8.54
2022-10-17T05:08:00.956Z,8.64
2022-10-17T05:10:38.361Z,8.70
2022-10-17T05:13:08.593Z,8.68
2022-10-17T05:15:39.535Z,8.62
2022-10-17T05:18:09.199Z,8.55
2022-10-17T05:20:39.723Z,8.48
2022-10-17T05:23:10.895Z,8.47
2022-10-17T05:25:44.294Z,8.46
2022-10-17T05:28:14.264Z,8.48
2022-10-17T05:30:45.310Z,8.50
2022-10-17T05:33:14.877Z,8.61
2022-10-17T05:35:44.448Z,8.69
2022-10-17T05:38:15.312Z,8.76
2022-10-17T05:40:46.899Z,8.76
2022-10-17T05:43:16.757Z,8.77
2022-10-17T05:45:47.627Z,8.80
2022-10-17T05:48:22.663Z,8.80
2022-10-17T05:51:00.759Z,8.79
2022-10-17T05:53:34.555Z,8.79
2022-10-17T05:56:10.780Z,8.76
2022-10-17T05:58:52.540Z,8.73
2022-10-17T06:01:40.350Z,8.66
2022-10-17T06:04:10.135Z,8.64
2022-10-17T06:06:41.401Z,8.65
2022-10-17T06:09:13.851Z,8.64
2022-10-17T06:11:46.820Z,8.62
2022-10-17T06:14:16.540Z,8.60
2022-10-17T06:16:45.915Z,8.62
2022-10-17T06:19:15.410Z,8.63
2022-10-17T06:21:44.826Z,8.65
2022-10-17T06:24:23.275Z,8.65
2022-10-17T06:26:54.670Z,8.62
2022-10-17T06:29:24.752Z,8.59
2022-10-17T06:31:55.104Z,8.55
2022-10-17T06:34:24.765Z,8.56
2022-10-17T06:36:54.750Z,8.55
2022-10-17T06:39:26.976Z,8.57
2022-10-17T06:42:08.110Z,8.60
2022-10-17T06:45:07.489Z,8.66
2022-10-17T06:47:44.569Z,8.68
2022-10-17T06:50:30.099Z,8.73
2022-10-17T06:53:08.773Z,8.99
2022-10-17T06:55:55.369Z,9.23
2022-10-17T06:58:43.450Z,9.36
2022-10-17T07:01:47.962Z,9.45
2022-10-17T07:04:18.662Z,9.56
2022-10-17T07:06:48.096Z,9.61
2022-10-17T07:09:20.400Z,9.69
2022-10-17T07:11:51.494Z,9.77
2022-10-17T07:14:21.452Z,9.83
2022-10-17T07:16:51.199Z,9.92
2022-10-17T07:19:26.943Z,10.13
2022-10-17T07:21:56.541Z,10.32
2022-10-17T07:24:26.037Z,10.48
2022-10-17T07:27:06.237Z,10.66
2022-10-17T07:29:35.880Z,10.77
2022-10-17T07:32:11.979Z,10.91
2022-10-17T07:34:41.346Z,10.98
2022-10-17T07:37:12.367Z,11.05
2022-10-17T07:39:44.834Z,11.24
2022-10-17T07:42:16.154Z,11.31
2022-10-17T07:44:47.272Z,11.41
2022-10-17T07:47:16.752Z,11.48
2022-10-17T07:49:47.089Z,11.55
2022-10-17T07:52:18.787Z,11.72
2022-10-17T07:54:48.480Z,11.88
2022-10-17T07:57:19.245Z,11.99
2022-10-17T07:59:50.714Z,12.14
2022-10-17T08:02:25.476Z,12.19
2022-10-17T08:04:55.371Z,12.26
2022-10-17T08:07:28.504Z,12.40
2022-10-17T08:10:03.192Z,12.63
2022-10-17T08:12:34.468Z,12.80
2022-10-17T08:15:04.290Z,12.98
2022-10-17T08:17:36.004Z,13.02
2022-10-17T08:20:07.768Z,13.10
2022-10-17T08:22:37.288Z,13.19
2022-10-17T08:25:09.190Z,13.30
2022-10-17T08:27:39.968Z,13.44
2022-10-17T08:30:11.602Z,13.67
2022-10-17T08:32:41.299Z,13.78
2022-10-17T08:35:11.450Z,13.98
2022-10-17T08:37:40.816Z,14.07
2022-10-17T08:40:22.225Z,14.19
2022-10-17T08:43:21.320Z,14.22
2022-10-17T08:45:56.976Z,14.27
2022-10-17T08:48:30.445Z,14.43
2022-10-17T08:51:07.304Z,14.50
2022-10-17T08:53:42.841Z,14.61
2022-10-17T08:56:25.095Z,14.68
2022-10-17T08:59:16.254Z,14.70
2022-10-17T09:01:53.233Z,14.74
2022-10-17T09:05:09.946Z,14.83
2022-10-17T09:07:49.537Z,15.08
2022-10-17T09:10:32.159Z,15.21
2022-10-17T09:13:20.625Z,15.25
2022-10-17T09:16:13.418Z,15.31
2022-10-17T09:18:47.452Z,15.42
2022-10-17T09:21:26.363Z,15.55
2022-10-17T09:24:09.093Z,15.65
2022-10-17T09:26:41.792Z,15.74
2022-10-17T09:29:23.510Z,15.95
2022-10-17T09:32:04.238Z,16.03
2022-10-17T09:34:34.305Z,16.09
2022-10-17T09:37:07.456Z,16.15
2022-10-17T09:39:37.129Z,16.22
2022-10-17T09:42:06.648Z,16.38
2022-10-17T09:44:42.344Z,16.62
2022-10-17T09:47:31.181Z,16.86
2022-10-17T09:50:00.583Z,16.98
2022-10-17T09:52:36.709Z,17.00
2022-10-17T09:55:18.330Z,17.00
2022-10-17T09:57:58.828Z,17.09
2022-10-17T10:00:31.411Z,17.16
2022-10-17T10:03:17.796Z,17.26
2022-10-17T10:06:03.449Z,17.35
2022-10-17T10:08:36.557Z,17.45
2022-10-17T10:11:13.350Z,17.54
2022-10-17T10:13:45.125Z,17.63
2022-10-17T10:16:23.096Z,17.68
2022-10-17T10:18:54.199Z,17.78
2022-10-17T10:21:26.984Z,17.86
2022-10-17T10:24:13.319Z,18.04
2022-10-17T10:26:47.496Z,18.11
2022-10-17T10:29:30.738Z,18.34
2022-10-17T10:32:11.662Z,18.40
2022-10-17T10:34:53.910Z,18.46
2022-10-17T10:37:26.917Z,18.52
2022-10-17T10:39:59.838Z,18.69
2022-10-17T10:43:24.386Z,18.81
2022-10-17T10:45:54.409Z,18.90
2022-10-17T10:48:26.852Z,19.07
2022-10-17T10:51:01.709Z,19.24
2022-10-17T10:53:48.444Z,19.23
2022-10-17T10:56:23.069Z,19.18
2022-10-17T10:59:01.017Z,19.17
2022-10-17T11:01:43.445Z,19.32
2022-10-17T11:04:32.437Z,19.38
2022-10-17T11:07:11.365Z,19.42
2022-10-17T11:09:55.108Z,19.41
2022-10-17T11:12:29.208Z,19.43
2022-10-17T11:15:09.144Z,19.54
2022-10-17T11:17:46.901Z,19.58
2022-10-17T11:20:29.922Z,19.78
2022-10-17T11:23:19.888Z,19.96
2022-10-17T11:25:53.397Z,20.05
2022-10-17T11:28:26.153Z,20.09
2022-10-17T11:31:05.770Z,20.32
2022-10-17T11:33:47.610Z,20.38
2022-10-17T11:36:23.294Z,20.43
2022-10-17T11:39:01.185Z,20.51
2022-10-17T11:41:41.309Z,20.55
2022-10-17T11:44:24.074Z,20.60
2022-10-17T11:47:08.552Z,20.75
2022-10-17T11:49:45.186Z,20.83
2022-10-17T11:52:55.540Z,20.88
2022-10-17T11:55:30.557Z,20.89
2022-10-17T11:58:31.302Z,21.00
2022-10-17T12:01:16.648Z,21.16
2022-10-17T12:07:06.890Z,21.37
2022-10-17T12:09:46.030Z,21.38
2022-10-17T12:12:28.641Z,21.47
2022-10-17T12:15:29.577Z,21.63
2022-10-17T12:18:02.824Z,21.77
2022-10-17T12:20:38.390Z,21.92
2022-10-17T12:23:27.212Z,22.07
2022-10-17T12:26:03.356Z,22.20
2022-10-17T12:28:43.899Z,22.31
2022-10-17T12:31:32.500Z,22.54
2022-10-17T12:34:05.353Z,22.74
2022-10-17T12:36:43.758Z,22.90
2022-10-17T12:39:50.290Z,23.22
2022-10-17T12:42:35.299Z,23.45
2022-10-17T12:45:47.799Z,23.70
2022-10-17T12:49:00.567Z,23.88
2022-10-17T12:51:38.159Z,24.13
2022-10-17T12:54:13.247Z,24.29
2022-10-17T12:56:47.116Z,24.52
2022-10-17T12:59:23.157Z,24.73
2022-10-17T13:01:58.971Z,25.08
2022-10-17T13:04:30.098Z,25.18
2022-10-17T13:07:01.230Z,25.41
2022-10-17T13:09:32.904Z,25.61
2022-10-17T13:12:07.596Z,25.77
2022-10-17T13:14:40.532Z,26.10
2022-10-17T13:17:24.842Z,26.30
2022-10-17T13:19:55.024Z,26.44
2022-10-17T13:22:27.394Z,26.60
2022-10-17T13:25:09.582Z,26.50
2022-10-17T13:27:38.985Z,26.60
2022-10-17T13:30:29.408Z,26.83
2022-10-17T13:33:03.672Z,27.24
2022-10-17T13:35:58.994Z,27.56
2022-10-17T13:38:28.606Z,27.83
2022-10-17T13:41:10.744Z,28.18
2022-10-17T13:43:45.991Z,28.58
2022-10-17T13:46:37.327Z,28.61
2022-10-17T13:49:22.194Z,28.67
2022-10-17T13:51:55.449Z,28.62
2022-10-17T13:54:36.399Z,28.95
2022-10-17T13:57:07.801Z,29.14
2022-10-17T13:59:40.863Z,29.42
2022-10-17T14:02:16.886Z,29.73
2022-10-17T14:05:18.783Z,29.69
2022-10-17T14:08:09.274Z,29.88
2022-10-17T14:10:33.778Z,30.03
2022-10-17T14:13:05.261Z,30.07
2022-10-17T14:15:36.891Z,30.09
2022-10-17T14:18:08.889Z,30.22
2022-10-17T14:21:28.811Z,30.20
2022-10-17T14:23:39.139Z,30.34
2022-10-17T14:26:13.682Z,30.39
2022-10-17T14:28:47.977Z,30.26
2022-10-17T14:31:29.957Z,30.45
2022-10-17T14:34:00.916Z,30.53
2022-10-17T14:36:41.979Z,30.51
2022-10-17T14:39:21.045Z,30.50
2022-10-17T14:41:51.119Z,30.45
2022-10-17T14:44:24.573Z,30.51
2022-10-17T14:47:05.930Z,30.54
2022-10-17T14:49:42.552Z,30.48
2022-10-17T14:52:35.488Z,30.61
2022-10-17T14:55:24.284Z,30.21
2022-10-17T14:57:53.547Z,29.44
2022-10-17T15:00:24.479Z,28.70
2022-10-17T15:02:56.222Z,27.99
2022-10-17T15:05:25.926Z,27.41
2022-10-17T15:07:56.896Z,26.74
2022-10-17T15:10:34.332Z,26.11
2022-10-17T15:13:26.530Z,25.60
2022-10-17T15:15:54.117Z,25.22
2022-10-17T15:18:23.520Z,24.80
2022-10-17T15:21:04.512Z,24.29
2022-10-17T15:23:43.282Z,23.82
2022-10-17T15:26:16.402Z,23.44
2022-10-17T15:28:47.464Z,23.06
2022-10-17T15:31:20.584Z,22.76
2022-10-17T15:33:50.917Z,22.36
2022-10-17T15:36:25.117Z,21.98
2022-10-17T15:38:59.828Z,21.59
2022-10-17T15:41:32.760Z,21.23
2022-10-17T15:44:02.195Z,20.91
2022-10-17T15:46:35.512Z,20.61
2022-10-17T15:49:08.621Z,20.34
2022-10-17T15:51:38.158Z,20.03
2022-10-17T15:54:08.852Z,19.82
2022-10-17T15:56:41.194Z,19.60
2022-10-17T15:59:15.055Z,19.40
2022-10-17T16:01:44.255Z,19.20
2022-10-17T16:04:15.538Z,19.03
2022-10-17T16:06:44.789Z,18.83
2022-10-17T16:09:15.300Z,18.63
2022-10-17T16:11:45.536Z,18.46
2022-10-17T16:14:18.061Z,18.27
2022-10-17T16:16:47.298Z,18.08
2022-10-17T16:19:16.902Z,17.89
2022-10-17T16:21:46.043Z,17.69
2022-10-17T16:24:17.697Z,17.49
2022-10-17T16:26:46.806Z,17.32
2022-10-17T16:29:16.002Z,17.12
2022-10-17T16:31:46.659Z,16.95
2022-10-17T16:34:16.716Z,16.76
2022-10-17T16:36:45.815Z,16.59
2022-10-17T16:39:16.421Z,16.45
2022-10-17T16:41:45.604Z,16.36
2022-10-17T16:44:15.708Z,16.25
2022-10-17T16:46:44.967Z,16.08
2022-10-17T16:49:16.009Z,15.94
2022-10-17T16:51:45.270Z,15.79
2022-10-17T16:54:15.784Z,15.65
2022-10-17T16:56:44.959Z,15.56
2022-10-17T16:59:14.077Z,15.43
2022-10-17T17:01:43.316Z,15.29
2022-10-17T17:04:12.616Z,15.18
2022-10-17T17:06:41.929Z,15.09
2022-10-17T17:09:11.426Z,15.01
2022-10-17T17:11:42.001Z,14.93
2022-10-17T17:14:12.701Z,14.84
2022-10-17T17:16:43.489Z,14.79
2022-10-17T17:19:16.792Z,14.71
2022-10-17T17:21:50.169Z,14.66
2022-10-17T17:24:21.069Z,14.67
2022-10-17T17:26:54.378Z,14.65
2022-10-17T17:29:24.828Z,14.64
2022-10-17T17:31:54.158Z,14.63
2022-10-17T17:34:23.389Z,14.54
2022-10-17T17:36:52.474Z,14.45
2022-10-17T17:39:21.789Z,14.35
2022-10-17T17:41:52.262Z,14.24
2022-10-17T17:44:21.908Z,14.15
2022-10-17T17:46:51.225Z,14.05
2022-10-17T17:49:20.392Z,13.97
2022-10-17T17:51:49.539Z,13.91
2022-10-17T17:54:18.836Z,13.85
2022-10-17T17:56:48.038Z,13.74
2022-10-17T17:59:18.500Z,13.66
2022-10-17T18:01:47.887Z,13.59
2022-10-17T18:04:17.270Z,13.51
2022-10-17T18:06:46.388Z,13.44
2022-10-17T18:09:15.475Z,13.36
2022-10-17T18:11:44.577Z,13.30
2022-10-17T18:14:14.127Z,13.23
2022-10-17T18:16:44.577Z,13.19
2022-10-17T18:19:13.806Z,13.13
2022-10-17T18:21:44.193Z,13.07
2022-10-17T18:24:13.345Z,13.03
2022-10-17T18:26:42.490Z,12.97
2022-10-17T18:29:12.727Z,12.92
2022-10-17T18:31:41.852Z,12.80
2022-10-17T18:34:12.357Z,12.75
2022-10-17T18:36:41.444Z,12.69
2022-10-17T18:39:10.869Z,12.65
2022-10-17T18:41:40.216Z,12.61
2022-10-17T18:44:12.315Z,12.58
2022-10-17T18:46:41.767Z,12.52
2022-10-17T18:49:15.142Z,12.45
2022-10-17T18:51:44.429Z,12.41
2022-10-17T18:54:17.001Z,12.38
2022-10-17T18:56:46.106Z,12.32
2022-10-17T18:59:18.205Z,12.25
2022-10-17T19:01:48.384Z,12.20
2022-10-17T19:04:19.333Z,12.13
2022-10-17T19:06:48.835Z,12.10
2022-10-17T19:09:18.424Z,12.08
2022-10-17T19:11:48.194Z,12.06
2022-10-17T19:14:17.626Z,12.07
2022-10-17T19:17:38.218Z,12.05
2022-10-17T19:20:11.262Z,12.03
2022-10-17T19:22:40.537Z,11.99
2022-10-17T19:25:11.101Z,11.97
2022-10-17T19:27:40.780Z,11.92
2022-10-17T19:30:12.515Z,11.85
2022-10-17T19:32:42.309Z,11.81
2022-10-17T19:35:13.372Z,11.78
2022-10-17T19:37:42.732Z,11.73
2022-10-17T19:40:14.151Z,11.68
2022-10-17T19:42:43.519Z,11.62
2022-10-17T19:45:12.816Z,11.59
2022-10-17T19:47:42.259Z,11.57
2022-10-17T19:50:12.871Z,11.51
2022-10-17T19:52:42.160Z,11.50
2022-10-17T19:55:11.581Z,11.42
2022-10-17T19:57:40.966Z,11.41
2022-10-17T20:00:12.181Z,11.39
2022-10-17T20:02:41.669Z,11.39
2022-10-17T20:05:18.542Z,11.37
2022-10-17T20:07:48.101Z,11.37
2022-10-17T20:10:18.460Z,11.36
2022-10-17T20:12:47.592Z,11.30
2022-10-17T20:15:17.105Z,11.26
2022-10-17T20:17:46.524Z,11.24
2022-10-17T20:20:17.834Z,11.27
2022-10-17T20:22:47.408Z,11.28
2022-10-17T20:25:16.996Z,11.29
2022-10-17T20:27:46.351Z,11.33
2022-10-17T20:30:16.482Z,11.34
2022-10-17T20:32:45.697Z,11.34
2022-10-17T20:35:16.503Z,11.32
2022-10-17T20:37:45.764Z,11.25
2022-10-17T20:40:35.101Z,11.22
2022-10-17T20:43:05.444Z,11.17
2022-10-17T20:45:50.635Z,11.13
2022-10-17T20:48:20.552Z,11.08
2022-10-17T20:50:51.855Z,11.05
2022-10-17T20:53:36.599Z,11.03
2022-10-17T20:56:11.489Z,11.02
2022-10-17T20:58:40.889Z,10.99
2022-10-17T21:01:12.056Z,10.93
2022-10-17T21:03:45.587Z,10.90
2022-10-17T21:06:19.578Z,10.87
2022-10-17T21:08:49.780Z,10.85
2022-10-17T21:11:24.568Z,10.83
2022-10-17T21:13:58.257Z,10.83
2022-10-17T21:16:29.694Z,10.81
2022-10-17T21:18:59.416Z,10.81
2022-10-17T21:21:33.900Z,10.80
2022-10-17T21:24:07.701Z,10.79
2022-10-17T21:26:38.753Z,10.76
2022-10-17T21:29:08.832Z,10.79
2022-10-17T21:31:39.994Z,10.79
2022-10-17T21:34:12.273Z,10.78
2022-10-17T21:36:43.653Z,10.78
2022-10-17T21:39:14.264Z,10.78
2022-10-17T21:41:45.210Z,10.76
2022-10-17T21:44:17.876Z,10.75
2022-10-17T21:46:48.045Z,10.74
2022-10-17T21:49:20.895Z,10.74
2022-10-17T21:51:53.491Z,10.72
2022-10-17T21:54:24.385Z,10.68
2022-10-17T21:56:54.166Z,10.70
2022-10-17T21:59:23.545Z,10.74
2022-10-17T22:01:53.111Z,10.76
2022-10-17T22:04:22.576Z,10.79
2022-10-17T22:06:53.312Z,10.82
2022-10-17T22:09:25.933Z,10.93
2022-10-17T22:11:58.020Z,11.09
2022-10-17T22:14:28.762Z,11.15
2022-10-17T22:16:58.137Z,11.26
2022-10-17T22:19:28.744Z,11.42
2022-10-17T22:21:59.452Z,11.54
2022-10-17T22:24:28.811Z,11.62
2022-10-17T22:26:58.176Z,11.66
2022-10-17T22:29:27.782Z,11.69
2022-10-17T22:31:57.193Z,11.68
2022-10-17T22:34:26.753Z,11.67
2022-10-17T22:36:56.084Z,11.65
2022-10-17T22:39:26.768Z,11.60
2022-10-17T22:41:56.128Z,11.53
2022-10-17T22:44:26.178Z,11.48
2022-10-17T22:46:55.549Z,11.46
2022-10-17T22:49:24.889Z,11.42
2022-10-17T22:51:54.341Z,11.31
2022-10-17T22:54:23.715Z,11.22
2022-10-17T22:56:54.435Z,11.13
2022-10-17T22:59:24.129Z,11.13
2022-10-17T23:01:53.520Z,11.12
2022-10-17T23:04:23.056Z,11.02
2022-10-17T23:06:52.453Z,10.94
2022-10-17T23:09:21.860Z,10.90
2022-10-17T23:11:51.227Z,10.89
2022-10-17T23:14:22.020Z,10.85
2022-10-17T23:16:51.552Z,10.76
2022-10-17T23:19:20.889Z,10.69
2022-10-17T23:21:50.343Z,10.66
2022-10-17T23:24:19.732Z,10.59
2022-10-17T23:26:49.080Z,10.52
2022-10-17T23:29:18.841Z,10.48
2022-10-17T23:31:49.792Z,10.47
2022-10-17T23:34:19.145Z,10.48
2022-10-17T23:36:48.598Z,10.53
2022-10-17T23:39:18.049Z,10.58
2022-10-17T23:41:47.445Z,10.60
2022-10-17T23:44:16.957Z,10.60
2022-10-17T23:46:46.420Z,10.55
2022-10-17T23:49:17.271Z,10.47
2022-10-17T23:51:46.435Z,10.38
2022-10-17T23:54:16.087Z,10.37
2022-10-17T23:56:45.381Z,10.27
2022-10-17T23:59:14.706Z,10.21
